Time;durP1;ratioP1;P1;durP2;ratioP2;P2;SDS_P1;SDS_P2;PMS_P1;PMS_P2;Temp;Humidity;BMP_temperature;BMP_pressure;BME280_temperature;BME280_humidity;BME280_pressure;Samples;Min_cycle;Max_cycle;Signal;HPM_P1;HPM_P2
2022/08/31 00:05:08;;;;;;;;;;;25.60;57.80;;;;;;4974052;28;19917;-66
2022/08/31 00:07:34;;;;;;;;;;;25.60;58.00;;;;;;4974194;28;19925;-68
2022/08/31 00:10:02;;;;;;;;;;;25.60;57.70;;;;;;4959446;28;20251;-70
2022/08/31 00:12:28;;;;;;;;;;;25.50;57.90;;;;;;4947275;28;20284;-66
2022/08/31 00:14:54;;;;;;;;;;;25.50;58.30;;;;;;4974260;28;19914;-64
2022/08/31 00:17:19;;;;;;;;;;;25.60;57.80;;;;;;4973977;28;19957;-64
2022/08/31 00:19:45;;;;;;;;;;;25.60;57.60;;;;;;4968002;28;19917;-67
2022/08/31 00:22:10;;;;;;;;;;;25.60;57.70;;;;;;4948786;28;20381;-64
2022/08/31 00:24:36;;;;;;;;;;;25.50;57.20;;;;;;4973824;28;19917;-68
2022/08/31 00:27:01;;;;;;;;;;;25.50;57.40;;;;;;4973863;28;20011;-69
2022/08/31 00:29:27;;;;;;;;;;;25.50;57.70;;;;;;4972542;28;19929;-63
2022/08/31 00:31:52;;;;;;;;;;;25.60;57.50;;;;;;4972693;28;19911;-64
2022/08/31 00:34:18;;;;;;;;;;;25.60;57.50;;;;;;4973836;28;19941;-68
2022/08/31 00:36:46;;;;;;;;;;;25.60;57.10;;;;;;4973663;28;19910;-70
2022/08/31 00:39:12;;;;;;;;;;;25.50;57.30;;;;;;4973477;28;19953;-64
2022/08/31 00:41:37;;;;;;;;;;;25.50;57.10;;;;;;4973492;28;20365;-68
2022/08/31 00:44:05;;;;;;;;;;;25.40;57.80;;;;;;4973724;28;19910;-70
2022/08/31 00:46:32;;;;;;;;;;;25.40;57.00;;;;;;4973531;28;20471;-68
2022/08/31 00:49:03;;;;;;;;;;;25.40;57.20;;;;;;4973828;28;19918;-63
2022/08/31 00:51:31;;;;;;;;;;;25.30;56.90;;;;;;4972411;28;19920;-63
2022/08/31 00:53:57;;;;;;;;;;;25.30;57.40;;;;;;4973576;28;19911;-63
2022/08/31 00:56:22;;;;;;;;;;;25.40;57.30;;;;;;4973570;28;19936;-64
2022/08/31 00:58:49;;;;;;;;;;;25.40;56.90;;;;;;4973260;28;20017;-65
2022/08/31 01:01:14;;;;;;;;;;;25.40;56.60;;;;;;4973777;28;19937;-63
2022/08/31 01:03:40;;;;;;;;;;;25.40;56.40;;;;;;4973212;28;20033;-63
2022/08/31 01:06:06;;;;;;;;;;;25.40;56.50;;;;;;4973327;28;20285;-63
2022/08/31 01:08:32;;;;;;;;;;;25.40;56.60;;;;;;4972958;28;20041;-64
2022/08/31 01:10:58;;;;;;;;;;;25.40;56.70;;;;;;4973335;28;19925;-64
2022/08/31 01:13:23;;;;;;;;;;;25.40;56.40;;;;;;4973135;28;19944;-65
2022/08/31 01:15:52;;;;;;;;;;;25.40;56.60;;;;;;4972999;28;19914;-64
2022/08/31 01:18:18;;;;;;;;;;;25.30;56.60;;;;;;4973204;28;19918;-63
2022/08/31 01:20:49;;;;;;;;;;;25.40;56.40;;;;;;4959403;28;19914;-64
2022/08/31 01:23:21;;;;;;;;;;;25.40;56.50;;;;;;4959043;28;19918;-63
2022/08/31 01:25:47;;;;;;;;;;;25.40;56.60;;;;;;4973165;28;19914;-64
2022/08/31 01:28:13;;;;;;;;;;;25.30;56.70;;;;;;4973040;28;20445;-64
2022/08/31 01:30:40;;;;;;;;;;;25.30;56.70;;;;;;4973052;28;20021;-65
2022/08/31 01:33:06;;;;;;;;;;;25.30;56.50;;;;;;4972944;28;20426;-64
2022/08/31 01:35:32;;;;;;;;;;;25.30;56.50;;;;;;4973050;28;19957;-64
2022/08/31 01:37:58;;;;;;;;;;;25.30;56.40;;;;;;4972974;28;19920;-63
2022/08/31 01:40:42;;;;;;;;;;;25.40;56.30;;;;;;4972984;28;19910;-65
2022/08/31 01:43:08;;;;;;;;;;;25.40;56.40;;;;;;4972796;28;20326;-64
2022/08/31 01:45:34;;;;;;;;;;;25.30;56.80;;;;;;4972953;28;20001;-72
2022/08/31 01:47:59;;;;;;;;;;;25.20;56.80;;;;;;4973967;28;19926;-71
2022/08/31 01:50:25;;;;;;;;;;;25.20;57.00;;;;;;4974668;28;19965;-71
2022/08/31 01:52:51;;;;;;;;;;;25.20;57.50;;;;;;4968239;28;19910;-71
2022/08/31 01:55:16;;;;;;;;;;;25.10;57.40;;;;;;4976507;28;20305;-72
2022/08/31 01:57:42;;;;;;;;;;;25.20;57.40;;;;;;4976725;28;19910;-72
2022/08/31 02:00:08;;;;;;;;;;;25.20;57.50;;;;;;4976444;28;19937;-72
2022/08/31 02:02:33;;;;;;;;;;;25.20;57.40;;;;;;4976460;28;20263;-72
2022/08/31 02:04:59;;;;;;;;;;;25.10;57.40;;;;;;4976516;28;19921;-72
2022/08/31 02:07:25;;;;;;;;;;;25.10;57.60;;;;;;4976392;28;20324;-67
2022/08/31 02:09:50;;;;;;;;;;;25.00;57.50;;;;;;4976201;28;19914;-69
2022/08/31 02:12:16;;;;;;;;;;;25.00;57.70;;;;;;4976110;28;19956;-65
2022/08/31 02:14:41;;;;;;;;;;;25.00;57.30;;;;;;4976266;28;19965;-70
2022/08/31 02:17:07;;;;;;;;;;;25.10;57.30;;;;;;4976118;28;20291;-66
2022/08/31 02:19:33;;;;;;;;;;;25.10;57.00;;;;;;4971750;28;19911;-65
2022/08/31 02:21:59;;;;;;;;;;;25.30;56.70;;;;;;4957175;28;20052;-65
2022/08/31 02:24:24;;;;;;;;;;;25.30;56.80;;;;;;4976435;28;19917;-65
2022/08/31 02:26:50;;;;;;;;;;;25.20;56.90;;;;;;4976006;28;20385;-66
2022/08/31 02:29:16;;;;;;;;;;;25.10;56.70;;;;;;4975792;28;20289;-65
2022/08/31 02:31:42;;;;;;;;;;;25.20;56.70;;;;;;4975997;28;19933;-66
2022/08/31 02:34:08;;;;;;;;;;;25.30;56.70;;;;;;4975987;28;20366;-65
2022/08/31 02:36:34;;;;;;;;;;;25.30;56.30;;;;;;4975860;28;19921;-66
2022/08/31 02:39:00;;;;;;;;;;;25.20;56.20;;;;;;4975830;28;20484;-65
2022/08/31 02:41:25;;;;;;;;;;;25.30;56.40;;;;;;4975745;28;20619;-64
2022/08/31 02:43:51;;;;;;;;;;;25.20;56.00;;;;;;4975856;28;20258;-64
2022/08/31 02:46:16;;;;;;;;;;;25.30;55.90;;;;;;4975596;28;19969;-70
2022/08/31 02:48:42;;;;;;;;;;;25.10;56.10;;;;;;4975666;28;19973;-72
2022/08/31 02:51:08;;;;;;;;;;;25.10;56.10;;;;;;4975602;28;19918;-71
2022/08/31 02:53:34;;;;;;;;;;;25.20;56.30;;;;;;4957384;28;19914;-69
2022/08/31 02:56:00;;;;;;;;;;;25.20;56.40;;;;;;4974220;28;19914;-71
2022/08/31 02:58:26;;;;;;;;;;;25.30;56.10;;;;;;4975347;28;19964;-70
2022/08/31 03:00:51;;;;;;;;;;;25.30;55.90;;;;;;4975719;28;19950;-72
2022/08/31 03:03:17;;;;;;;;;;;25.30;55.70;;;;;;4975296;28;20378;-71
2022/08/31 03:05:43;;;;;;;;;;;25.30;55.80;;;;;;4975363;28;19917;-70
2022/08/31 03:08:09;;;;;;;;;;;25.30;55.40;;;;;;4975289;28;19918;-70
2022/08/31 03:10:34;;;;;;;;;;;25.30;56.00;;;;;;4975105;28;20293;-71
2022/08/31 03:13:00;;;;;;;;;;;25.30;56.10;;;;;;4975076;28;20297;-71
2022/08/31 03:15:26;;;;;;;;;;;25.40;56.20;;;;;;4975114;28;19956;-71
2022/08/31 03:17:52;;;;;;;;;;;25.40;56.00;;;;;;4975202;28;19978;-71
2022/08/31 03:20:19;;;;;;;;;;;25.40;56.10;;;;;;4964786;28;19930;-71
2022/08/31 03:22:44;;;;;;;;;;;25.40;56.40;;;;;;4960459;28;19914;-71
2022/08/31 03:25:10;;;;;;;;;;;25.40;56.70;;;;;;4975113;28;19920;-71
2022/08/31 03:27:36;;;;;;;;;;;25.50;56.40;;;;;;4974876;28;19981;-72
2022/08/31 03:30:05;;;;;;;;;;;25.50;56.40;;;;;;4974885;28;19964;-71
2022/08/31 03:32:31;;;;;;;;;;;25.60;56.20;;;;;;4974649;28;19929;-69
2022/08/31 03:34:58;;;;;;;;;;;25.60;56.30;;;;;;4974659;28;19925;-69
2022/08/31 03:37:23;;;;;;;;;;;25.70;56.50;;;;;;4974751;28;20388;-69
2022/08/31 03:39:49;;;;;;;;;;;25.70;56.80;;;;;;4974427;28;19914;-70
2022/08/31 03:42:15;;;;;;;;;;;25.60;57.00;;;;;;4974738;28;19926;-70
2022/08/31 03:44:41;;;;;;;;;;;25.70;57.40;;;;;;4974539;28;20362;-72
2022/08/31 03:47:06;;;;;;;;;;;25.70;57.80;;;;;;4974604;28;19914;-72
2022/08/31 03:49:32;;;;;;;;;;;25.60;58.90;;;;;;4974364;28;19925;-72
2022/08/31 03:51:58;;;;;;;;;;;25.50;59.50;;;;;;4963502;28;20024;-72
2022/08/31 03:54:24;;;;;;;;;;;25.40;60.00;;;;;;4974512;28;20405;-71
2022/08/31 03:56:49;;;;;;;;;;;25.40;60.40;;;;;;4974273;28;19925;-69
2022/08/31 03:59:15;;;;;;;;;;;25.30;60.40;;;;;;4974271;28;19925;-71
2022/08/31 04:01:40;;;;;;;;;;;25.30;60.80;;;;;;4974255;28;19910;-71
2022/08/31 04:04:06;;;;;;;;;;;25.30;61.10;;;;;;4974384;28;19914;-70
2022/08/31 04:06:31;;;;;;;;;;;25.30;61.40;;;;;;4974174;28;19910;-71
2022/08/31 04:08:57;;;;;;;;;;;25.40;61.20;;;;;;4973826;28;19973;-67
2022/08/31 04:11:23;;;;;;;;;;;25.30;61.60;;;;;;4974205;28;19914;-64
2022/08/31 04:13:48;;;;;;;;;;;25.00;62.40;;;;;;4973705;28;19922;-66
2022/08/31 04:16:16;;;;;;;;;;;24.90;63.30;;;;;;4973976;28;20313;-65
2022/08/31 04:18:42;;;;;;;;;;;24.80;64.20;;;;;;4973843;28;19966;-65
2022/08/31 04:21:12;;;;;;;;;;;24.70;65.60;;;;;;4959088;28;20389;-64
2022/08/31 04:23:39;;;;;;;;;;;24.60;66.90;;;;;;4960901;28;19914;-63
2022/08/31 04:26:06;;;;;;;;;;;24.50;67.30;;;;;;4973671;28;19914;-66
2022/08/31 04:28:32;;;;;;;;;;;24.50;67.50;;;;;;4973779;28;20378;-68
2022/08/31 04:30:57;;;;;;;;;;;24.50;67.70;;;;;;4973825;28;19923;-66
2022/08/31 04:33:23;;;;;;;;;;;24.40;68.60;;;;;;4973801;28;20047;-66
2022/08/31 04:35:48;;;;;;;;;;;24.20;68.50;;;;;;4973732;28;20259;-67
2022/08/31 04:38:14;;;;;;;;;;;24.30;68.70;;;;;;4973644;28;20381;-65
2022/08/31 04:40:40;;;;;;;;;;;24.30;68.30;;;;;;4973635;28;19921;-65
2022/08/31 04:43:06;;;;;;;;;;;24.40;67.90;;;;;;4973716;28;19945;-65
2022/08/31 04:45:31;;;;;;;;;;;24.40;68.30;;;;;;4973639;28;20020;-64
2022/08/31 04:47:57;;;;;;;;;;;24.30;67.80;;;;;;4973415;28;19922;-64
2022/08/31 04:50:22;;;;;;;;;;;24.40;67.40;;;;;;4973433;28;19910;-67
2022/08/31 04:52:49;;;;;;;;;;;24.50;67.10;;;;;;4956955;28;19917;-68
2022/08/31 04:55:15;;;;;;;;;;;24.60;66.40;;;;;;4973460;28;19934;-67
2022/08/31 04:57:41;;;;;;;;;;;24.70;65.70;;;;;;4973513;28;19969;-65
2022/08/31 05:00:08;;;;;;;;;;;24.80;63.90;;;;;;4973314;28;20333;-66
2022/08/31 05:02:34;;;;;;;;;;;24.70;64.40;;;;;;4973360;28;19914;-66
2022/08/31 05:04:59;;;;;;;;;;;24.70;63.80;;;;;;4973201;28;19914;-64
2022/08/31 05:07:25;;;;;;;;;;;24.80;62.90;;;;;;4973255;28;19918;-64
2022/08/31 05:09:51;;;;;;;;;;;24.70;62.40;;;;;;4973249;28;19949;-63
2022/08/31 05:12:17;;;;;;;;;;;24.50;62.10;;;;;;4972942;28;20441;-64
2022/08/31 05:14:42;;;;;;;;;;;24.30;62.90;;;;;;4973267;28;19917;-64
2022/08/31 05:17:08;;;;;;;;;;;24.20;63.50;;;;;;4973224;28;19910;-63
2022/08/31 05:19:34;;;;;;;;;;;24.10;63.50;;;;;;4968523;28;19965;-64
2022/08/31 05:22:00;;;;;;;;;;;24.10;64.60;;;;;;4949734;28;19914;-64
2022/08/31 05:24:25;;;;;;;;;;;23.90;64.90;;;;;;4972981;28;19914;-64
2022/08/31 05:26:52;;;;;;;;;;;23.80;65.30;;;;;;4976396;28;19911;-65
2022/08/31 05:29:19;;;;;;;;;;;23.70;65.90;;;;;;4976770;28;19949;-64
2022/08/31 05:31:45;;;;;;;;;;;23.60;66.60;;;;;;4977006;28;19910;-65
2022/08/31 05:34:11;;;;;;;;;;;23.70;65.50;;;;;;4977387;28;19910;-64
2022/08/31 05:36:37;;;;;;;;;;;23.70;64.60;;;;;;4976676;28;20019;-65
2022/08/31 05:39:03;;;;;;;;;;;23.60;65.30;;;;;;4976897;28;19914;-65
2022/08/31 05:41:29;;;;;;;;;;;23.60;64.60;;;;;;4976787;28;20386;-66
2022/08/31 05:43:54;;;;;;;;;;;23.60;64.70;;;;;;4976914;28;20345;-65
2022/08/31 05:46:20;;;;;;;;;;;23.50;65.20;;;;;;4976516;28;20004;-65
2022/08/31 05:48:45;;;;;;;;;;;23.50;65.00;;;;;;4976452;28;19922;-64
2022/08/31 05:51:13;;;;;;;;;;;23.70;65.00;;;;;;4976540;28;19910;-65
2022/08/31 05:53:38;;;;;;;;;;;23.70;64.10;;;;;;4962601;28;19922;-64
2022/08/31 05:56:10;;;;;;;;;;;23.80;64.20;;;;;;4976775;28;19910;-66
2022/08/31 05:58:36;;;;;;;;;;;23.80;64.70;;;;;;4976226;28;19910;-64
2022/08/31 06:01:02;;;;;;;;;;;23.80;63.80;;;;;;4976653;28;20354;-61
2022/08/31 06:03:28;;;;;;;;;;;23.90;63.90;;;;;;4976361;28;20262;-62
2022/08/31 06:05:54;;;;;;;;;;;24.00;63.90;;;;;;4976599;28;19914;-67
2022/08/31 06:08:19;;;;;;;;;;;23.90;64.10;;;;;;4976361;28;19926;-67
2022/08/31 06:10:45;;;;;;;;;;;24.00;64.30;;;;;;4976624;28;20008;-64
2022/08/31 06:13:15;;;;;;;;;;;23.90;65.10;;;;;;4975587;28;19981;-68
2022/08/31 06:15:41;;;;;;;;;;;24.10;64.20;;;;;;4974842;28;19910;-67
2022/08/31 06:18:06;;;;;;;;;;;24.20;63.80;;;;;;4975356;28;19921;-71
2022/08/31 06:20:35;;;;;;;;;;;24.20;63.50;;;;;;4962641;28;20369;-65
2022/08/31 06:23:02;;;;;;;;;;;24.20;63.40;;;;;;4962208;28;20000;-64
2022/08/31 06:25:28;;;;;;;;;;;24.30;63.20;;;;;;4974880;28;19925;-65
2022/08/31 06:27:55;;;;;;;;;;;24.50;63.30;;;;;;4974664;28;19922;-64
2022/08/31 06:30:25;;;;;;;;;;;24.60;62.70;;;;;;4974902;28;19914;-65
2022/08/31 06:32:52;;;;;;;;;;;24.70;62.50;;;;;;4974563;28;19913;-63
2022/08/31 06:35:17;;;;;;;;;;;24.70;61.90;;;;;;4974917;28;19914;-64
2022/08/31 06:37:44;;;;;;;;;;;24.70;61.70;;;;;;4974273;28;19921;-65
2022/08/31 06:40:09;;;;;;;;;;;24.80;62.10;;;;;;4974780;28;19921;-65
2022/08/31 06:42:35;;;;;;;;;;;24.80;61.10;;;;;;4974648;28;19914;-65
2022/08/31 06:45:01;;;;;;;;;;;24.90;61.10;;;;;;4974395;28;19910;-64
2022/08/31 06:47:26;;;;;;;;;;;24.80;61.50;;;;;;4974708;28;19997;-64
2022/08/31 06:49:52;;;;;;;;;;;24.80;61.70;;;;;;4974336;28;19914;-71
2022/08/31 06:52:19;;;;;;;;;;;24.80;61.80;;;;;;4956179;28;19922;-73
2022/08/31 06:54:44;;;;;;;;;;;24.50;62.30;;;;;;4974593;28;19964;-72
2022/08/31 06:57:10;;;;;;;;;;;24.40;62.80;;;;;;4974507;28;19996;-73
2022/08/31 06:59:35;;;;;;;;;;;24.40;61.90;;;;;;4974210;28;19914;-71
2022/08/31 07:02:01;;;;;;;;;;;24.30;62.50;;;;;;4974479;28;19918;-71
2022/08/31 07:04:29;;;;;;;;;;;24.20;62.40;;;;;;4975597;28;20366;-73
2022/08/31 07:06:55;;;;;;;;;;;24.20;62.00;;;;;;4976449;28;20285;-72
2022/08/31 07:09:21;;;;;;;;;;;24.20;62.60;;;;;;4976753;28;20416;-74
2022/08/31 07:11:50;;;;;;;;;;;24.10;63.30;;;;;;4974781;28;19989;-72
2022/08/31 07:14:17;;;;;;;;;;;24.10;63.70;;;;;;4911087;28;1848797;-74
2022/08/31 07:16:44;;;;;;;;;;;24.10;64.20;;;;;;4973955;28;19950;-73
2022/08/31 07:19:10;;;;;;;;;;;24.00;63.80;;;;;;4973837;28;19910;-72
2022/08/31 07:21:55;;;;;;;;;;;24.10;63.70;;;;;;4944797;28;20301;-67
2022/08/31 07:24:23;;;;;;;;;;;24.20;63.80;;;;;;4974915;28;19997;-72
2022/08/31 07:26:50;;;;;;;;;;;24.10;63.70;;;;;;4974871;28;19914;-70
2022/08/31 07:29:17;;;;;;;;;;;24.20;64.30;;;;;;4974832;28;19926;-70
2022/08/31 07:31:45;;;;;;;;;;;24.20;64.00;;;;;;4959585;28;19970;-68
2022/08/31 07:34:12;;;;;;;;;;;24.30;64.40;;;;;;4935510;28;19918;-70
2022/08/31 07:42:08;;;;;;;;;;;24.50;63.00;;;;;;4953304;29;19921;-64
2022/08/31 07:44:33;;;;;;;;;;;24.60;63.30;;;;;;4952771;29;19910;-62
2022/08/31 07:46:59;;;;;;;;;;;24.80;63.00;;;;;;4952763;28;20273;-63
2022/08/31 07:49:25;;;;;;;;;;;25.00;62.50;;;;;;4951934;28;19918;-65
2022/08/31 07:51:50;;;;;;;;;;;25.10;62.00;;;;;;4941969;28;19958;-64
2022/08/31 07:54:19;;;;;;;;;;;25.10;62.30;;;;;;4973024;28;20270;-65
2022/08/31 07:56:46;;;;;;;;;;;25.10;62.50;;;;;;4960688;28;19915;-75
2022/08/31 07:59:13;;;;;;;;;;;25.20;62.40;;;;;;4959216;28;19965;-62
2022/08/31 08:01:40;;;;;;;;;;;25.20;62.10;;;;;;4973997;28;19937;-66
2022/08/31 08:04:06;;;;;;;;;;;25.20;61.80;;;;;;4972715;28;19917;-66
2022/08/31 08:06:32;;;;;;;;;;;25.10;62.10;;;;;;4973881;28;20285;-65
2022/08/31 08:09:05;;;;;;;;;;;25.00;61.90;;;;;;4974100;28;19925;-71
2022/08/31 08:11:32;;;;;;;;;;;25.10;62.80;;;;;;4973777;28;19966;-69
2022/08/31 08:13:57;;;;;;;;;;;25.20;62.10;;;;;;4973828;28;20362;-69
2022/08/31 08:16:23;;;;;;;;;;;25.20;61.80;;;;;;4973975;28;19914;-68
2022/08/31 08:18:49;;;;;;;;;;;25.10;61.50;;;;;;4973756;28;19911;-70
2022/08/31 08:21:15;;;;;;;;;;;25.20;62.00;;;;;;4960180;28;19925;-70
2022/08/31 08:23:40;;;;;;;;;;;25.00;62.70;;;;;;4963782;28;20308;-71
2022/08/31 08:26:07;;;;;;;;;;;24.70;63.80;;;;;;4973770;28;19956;-70
2022/08/31 08:28:33;;;;;;;;;;;24.60;65.00;;;;;;4973772;28;19918;-72
2022/08/31 08:31:01;;;;;;;;;;;24.50;66.40;;;;;;4973559;28;19910;-70
2022/08/31 08:33:27;;;;;;;;;;;24.60;66.80;;;;;;4973680;28;19914;-69
2022/08/31 08:35:55;;;;;;;;;;;24.70;67.00;;;;;;4973981;28;19914;-72
2022/08/31 08:38:24;;;;;;;;;;;24.80;67.20;;;;;;4973331;28;19997;-72
2022/08/31 08:40:50;;;;;;;;;;;24.70;67.70;;;;;;4973444;28;20305;-69
2022/08/31 08:43:18;;;;;;;;;;;24.60;68.50;;;;;;4973563;28;20068;-71
2022/08/31 08:45:44;;;;;;;;;;;24.60;68.50;;;;;;4972274;28;20278;-68
2022/08/31 08:48:12;;;;;;;;;;;24.60;69.10;;;;;;4971815;28;20401;-70
2022/08/31 08:50:39;;;;;;;;;;;24.60;69.80;;;;;;4973510;28;19921;-71
2022/08/31 08:53:05;;;;;;;;;;;24.50;70.10;;;;;;4939210;28;20430;-71
2022/08/31 08:55:35;;;;;;;;;;;24.50;69.90;;;;;;4942737;29;19915;-69
2022/08/31 08:58:04;;;;;;;;;;;24.50;70.00;;;;;;4953201;28;20695;-70
2022/08/31 09:00:32;;;;;;;;;;;24.40;70.60;;;;;;4952735;28;19921;-67
2022/08/31 09:02:59;;;;;;;;;;;24.30;71.50;;;;;;4953165;28;19978;-66
2022/08/31 09:05:43;;;;;;;;;;;24.40;71.20;;;;;;4952898;28;20286;-69
2022/08/31 09:08:27;;;;;;;;;;;24.40;71.00;;;;;;4964661;28;19922;-70
2022/08/31 09:11:17;;;;;;;;;;;24.50;71.30;;;;;;4971856;28;19917;-72
2022/08/31 09:13:54;;;;;;;;;;;24.50;71.70;;;;;;4939302;28;19955;-69
2022/08/31 09:16:41;;;;;;;;;;;24.40;73.10;;;;;;4933751;29;20022;-70
2022/08/31 09:19:11;;;;;;;;;;;24.40;73.60;;;;;;4934622;29;19915;-70
2022/08/31 09:21:53;;;;;;;;;;;24.50;73.20;;;;;;4934748;29;19915;-68
2022/08/31 09:24:20;;;;;;;;;;;24.50;72.90;;;;;;4952699;28;19919;-72
2022/08/31 09:26:55;;;;;;;;;;;24.50;74.00;;;;;;4952898;29;19921;-71
2022/08/31 09:29:25;;;;;;;;;;;24.60;74.80;;;;;;4952791;28;19930;-69
2022/08/31 09:32:04;;;;;;;;;;;24.50;75.90;;;;;;4952570;28;19946;-66
2022/08/31 09:34:36;;;;;;;;;;;24.60;75.10;;;;;;4952629;28;19918;-68
2022/08/31 09:37:16;;;;;;;;;;;24.60;75.60;;;;;;4952565;28;20362;-66
2022/08/31 09:39:46;;;;;;;;;;;24.60;74.70;;;;;;4952633;28;19914;-69
2022/08/31 09:42:17;;;;;;;;;;;24.60;77.30;;;;;;4956777;28;19917;-67
2022/08/31 09:44:45;;;;;;;;;;;24.60;78.60;;;;;;4973023;28;19914;-66
2022/08/31 09:47:47;;;;;;;;;;;24.60;79.50;;;;;;4959410;28;19979;-66
2022/08/31 09:50:24;;;;;;;;;;;24.50;79.70;;;;;;4934137;29;19918;-70
2022/08/31 09:55:34;;;;;;;;;;;24.70;79.10;;;;;;4942738;29;19974;-67
2022/08/31 09:58:06;;;;;;;;;;;24.60;80.70;;;;;;4933609;29;20326;-66
2022/08/31 10:00:38;;;;;;;;;;;24.50;81.00;;;;;;4933504;28;19922;-69
2022/08/31 10:03:17;;;;;;;;;;;24.50;82.20;;;;;;4933605;28;19918;-68
2022/08/31 10:05:43;;;;;;;;;;;24.50;83.40;;;;;;4933649;29;19911;-69
2022/08/31 10:08:17;;;;;;;;;;;24.50;83.90;;;;;;4933493;29;20330;-67
2022/08/31 10:10:43;;;;;;;;;;;24.60;83.30;;;;;;4933223;29;19922;-69
2022/08/31 10:13:13;;;;;;;;;;;24.50;83.20;;;;;;4936650;28;19934;-71
2022/08/31 10:16:05;;;;;;;;;;;24.50;84.10;;;;;;4936875;29;19916;-73
2022/08/31 10:18:36;;;;;;;;;;;24.50;83.20;;;;;;4956506;28;19964;-66
2022/08/31 10:21:07;;;;;;;;;;;24.40;83.60;;;;;;4953238;28;19918;-76
2022/08/31 10:23:40;;;;;;;;;;;24.50;82.80;;;;;;4944070;28;19914;-65
2022/08/31 10:26:18;;;;;;;;;;;24.60;81.80;;;;;;4955820;28;19910;-64
2022/08/31 10:28:49;;;;;;;;;;;24.60;82.20;;;;;;4961752;28;19922;-68
2022/08/31 10:31:24;;;;;;;;;;;24.70;82.70;;;;;;4975744;28;19914;-67
2022/08/31 10:36:41;;;;;;;;;;;24.80;82.30;;;;;;4975539;28;20006;-69
2022/08/31 10:39:26;;;;;;;;;;;24.80;82.00;;;;;;4975899;28;19914;-69
2022/08/31 10:41:51;;;;;;;;;;;24.70;82.70;;;;;;4975854;28;19921;-67
2022/08/31 10:44:25;;;;;;;;;;;24.80;81.50;;;;;;4955421;28;19915;-63
2022/08/31 10:46:53;;;;;;;;;;;24.70;82.60;;;;;;4936034;28;19918;-67
2022/08/31 10:49:20;;;;;;;;;;;24.80;82.80;;;;;;4949079;28;19953;-65
2022/08/31 10:51:54;;;;;;;;;;;24.70;83.40;;;;;;4940253;28;19918;-64
2022/08/31 10:54:39;;;;;;;;;;;24.60;84.30;;;;;;4954273;28;20358;-65
2022/08/31 10:57:07;;;;;;;;;;;24.60;83.70;;;;;;4951572;28;19918;-64
2022/08/31 10:59:42;;;;;;;;;;;24.60;84.30;;;;;;4955017;28;20346;-64
2022/08/31 11:02:20;;;;;;;;;;;24.50;84.90;;;;;;4939209;28;19986;-62
2022/08/31 11:04:57;;;;;;;;;;;24.60;85.00;;;;;;4936139;29;19915;-62
2022/08/31 11:07:28;;;;;;;;;;;24.60;84.60;;;;;;4939889;28;20408;-63
2022/08/31 11:10:15;;;;;;;;;;;24.60;84.30;;;;;;4955010;29;20016;-61
2022/08/31 11:12:44;;;;;;;;;;;24.60;84.30;;;;;;4954658;28;19945;-66
2022/08/31 11:15:22;;;;;;;;;;;24.70;85.50;;;;;;4955526;28;19917;-63
2022/08/31 11:17:54;;;;;;;;;;;24.60;84.00;;;;;;4936274;28;19937;-64
2022/08/31 11:20:38;;;;;;;;;;;24.80;80.30;;;;;;4935899;29;19915;-64
2022/08/31 11:23:26;;;;;;;;;;;24.90;80.50;;;;;;4944241;28;19917;-62
2022/08/31 11:25:58;;;;;;;;;;;25.10;77.50;;;;;;4970505;28;19993;-61
2022/08/31 11:28:31;;;;;;;;;;;25.50;78.30;;;;;;4954901;28;20354;-61
2022/08/31 11:31:00;;;;;;;;;;;25.80;76.80;;;;;;4954672;28;20258;-67
2022/08/31 11:33:27;;;;;;;;;;;26.00;73.30;;;;;;4972750;28;19917;-67
2022/08/31 11:36:01;;;;;;;;;;;26.00;74.20;;;;;;4959968;28;19918;-67
2022/08/31 11:38:39;;;;;;;;;;;25.70;72.50;;;;;;4972579;28;20386;-68
2022/08/31 11:41:04;;;;;;;;;;;25.80;74.00;;;;;;4970920;28;20052;-64
2022/08/31 11:43:30;;;;;;;;;;;25.90;73.80;;;;;;4966500;28;20425;-65
2022/08/31 11:46:00;;;;;;;;;;;25.90;72.10;;;;;;4941810;28;19922;-64
2022/08/31 11:48:50;;;;;;;;;;;25.70;71.10;;;;;;4939287;29;20035;-65
2022/08/31 11:51:34;;;;;;;;;;;25.70;70.50;;;;;;4937066;29;19919;-63
2022/08/31 11:54:02;;;;;;;;;;;25.60;71.00;;;;;;4937332;29;19911;-63
2022/08/31 11:56:35;;;;;;;;;;;25.80;70.80;;;;;;4937834;29;19911;-65
2022/08/31 11:59:20;;;;;;;;;;;25.50;72.00;;;;;;4936981;28;19917;-63
2022/08/31 12:01:45;;;;;;;;;;;25.30;72.40;;;;;;4937886;29;19911;-65
2022/08/31 12:04:30;;;;;;;;;;;25.20;74.00;;;;;;4935301;29;20259;-64
2022/08/31 12:07:00;;;;;;;;;;;25.30;73.00;;;;;;4934939;29;19911;-64
2022/08/31 12:09:44;;;;;;;;;;;25.40;71.10;;;;;;4937110;29;19926;-65
2022/08/31 12:12:10;;;;;;;;;;;25.30;72.60;;;;;;4936219;29;19977;-64
2022/08/31 12:14:48;;;;;;;;;;;25.30;72.30;;;;;;4936329;29;20727;-66
2022/08/31 12:17:26;;;;;;;;;;;25.30;72.00;;;;;;4939736;28;19911;-66
2022/08/31 12:20:12;;;;;;;;;;;25.20;73.20;;;;;;4936743;29;19925;-67
2022/08/31 12:26:00;;;;;;;;;;;25.60;71.50;;;;;;4939082;29;19918;-66
2022/08/31 12:28:44;;;;;;;;;;;25.90;70.40;;;;;;4936361;29;19965;-67
2022/08/31 12:31:12;;;;;;;;;;;25.70;70.10;;;;;;4935330;29;20286;-66
2022/08/31 12:33:42;;;;;;;;;;;25.90;68.10;;;;;;4936059;28;20017;-67
2022/08/31 12:36:16;;;;;;;;;;;25.80;69.10;;;;;;4953500;28;19937;-64
2022/08/31 12:38:42;;;;;;;;;;;25.80;68.80;;;;;;4942335;28;20277;-65
2022/08/31 12:41:12;;;;;;;;;;;26.00;68.70;;;;;;4934829;29;19966;-64
2022/08/31 12:43:41;;;;;;;;;;;26.20;67.70;;;;;;4935685;29;20010;-64
2022/08/31 12:46:15;;;;;;;;;;;26.30;67.20;;;;;;4936472;29;19954;-64
2022/08/31 12:48:56;;;;;;;;;;;26.70;67.60;;;;;;4946112;29;19925;-65
2022/08/31 12:51:30;;;;;;;;;;;26.70;65.70;;;;;;4951038;29;20001;-69
2022/08/31 12:54:06;;;;;;;;;;;26.80;66.60;;;;;;4940170;28;20358;-68
2022/08/31 12:56:46;;;;;;;;;;;26.60;66.20;;;;;;4953232;29;19922;-66
2022/08/31 12:59:24;;;;;;;;;;;26.40;67.20;;;;;;4953712;29;19917;-69
2022/08/31 13:01:50;;;;;;;;;;;26.50;67.50;;;;;;4941935;28;19954;-70
2022/08/31 13:04:17;;;;;;;;;;;26.70;66.30;;;;;;4964389;28;20467;-65
2022/08/31 13:06:44;;;;;;;;;;;26.80;66.50;;;;;;4973162;28;19997;-62
2022/08/31 13:09:23;;;;;;;;;;;27.00;65.80;;;;;;4973147;28;19984;-65
2022/08/31 13:11:50;;;;;;;;;;;27.10;64.70;;;;;;4973455;28;19922;-64
2022/08/31 13:14:19;;;;;;;;;;;27.40;62.40;;;;;;4972971;28;19926;-62
2022/08/31 13:16:46;;;;;;;;;;;27.60;60.70;;;;;;4973598;28;19914;-67
2022/08/31 13:19:24;;;;;;;;;;;27.30;58.30;;;;;;4971508;28;19914;-63
2022/08/31 13:21:51;;;;;;;;;;;27.40;59.20;;;;;;4943847;28;19910;-61
2022/08/31 13:24:22;;;;;;;;;;;27.60;59.60;;;;;;4964378;28;20023;-62
2022/08/31 13:27:00;;;;;;;;;;;27.70;59.80;;;;;;4973214;28;19910;-61
2022/08/31 13:29:26;;;;;;;;;;;27.60;58.20;;;;;;4937859;28;20474;-62
2022/08/31 13:31:51;;;;;;;;;;;27.60;58.60;;;;;;4934096;29;20006;-67
2022/08/31 13:34:19;;;;;;;;;;;27.60;58.80;;;;;;4934095;29;20374;-68
2022/08/31 13:36:47;;;;;;;;;;;27.60;57.90;;;;;;4933530;29;19918;-67
2022/08/31 13:39:15;;;;;;;;;;;27.40;57.20;;;;;;4932924;29;19998;-68
2022/08/31 13:41:42;;;;;;;;;;;27.40;57.50;;;;;;4933199;28;20047;-66
2022/08/31 13:44:10;;;;;;;;;;;27.40;58.70;;;;;;4933547;29;19935;-69
2022/08/31 13:46:49;;;;;;;;;;;27.60;57.50;;;;;;4934770;28;20361;-66
2022/08/31 13:49:44;;;;;;;;;;;27.80;56.40;;;;;;4945228;28;19923;-67
2022/08/31 13:52:27;;;;;;;;;;;28.00;56.20;;;;;;4947492;28;19921;-66
2022/08/31 13:55:12;;;;;;;;;;;28.10;54.60;;;;;;4954963;28;20305;-66
2022/08/31 13:57:39;;;;;;;;;;;28.20;54.70;;;;;;4956573;29;19953;-65
2022/08/31 14:00:23;;;;;;;;;;;28.30;53.80;;;;;;4954993;28;20385;-67
2022/08/31 14:02:49;;;;;;;;;;;28.40;54.30;;;;;;4955997;28;19965;-66
2022/08/31 14:05:35;;;;;;;;;;;28.50;54.60;;;;;;4952910;28;19957;-67
2022/08/31 14:08:01;;;;;;;;;;;28.40;53.40;;;;;;4954419;28;20258;-70
2022/08/31 14:10:30;;;;;;;;;;;28.20;54.20;;;;;;4966416;28;19964;-67
2022/08/31 14:12:56;;;;;;;;;;;28.10;54.70;;;;;;4974566;28;19960;-67
2022/08/31 14:15:37;;;;;;;;;;;28.20;55.20;;;;;;4974897;28;19980;-65
2022/08/31 14:18:16;;;;;;;;;;;28.30;55.50;;;;;;4974523;28;19921;-67
2022/08/31 14:20:44;;;;;;;;;;;28.30;55.00;;;;;;4961335;28;19922;-69
2022/08/31 14:23:27;;;;;;;;;;;28.40;55.20;;;;;;4933192;28;20295;-70
2022/08/31 14:25:54;;;;;;;;;;;28.40;54.40;;;;;;4950846;28;20272;-69
2022/08/31 14:28:31;;;;;;;;;;;28.10;55.00;;;;;;4945473;29;19918;-69
2022/08/31 14:31:10;;;;;;;;;;;28.10;55.80;;;;;;4949879;28;19915;-69
2022/08/31 14:33:35;;;;;;;;;;;27.70;56.20;;;;;;4951992;29;19918;-70
2022/08/31 14:36:13;;;;;;;;;;;27.70;56.50;;;;;;4954337;29;19997;-69
2022/08/31 14:38:39;;;;;;;;;;;27.80;56.80;;;;;;4954171;28;19911;-68
2022/08/31 14:41:06;;;;;;;;;;;28.00;57.20;;;;;;4949814;29;19958;-69
2022/08/31 14:43:33;;;;;;;;;;;28.00;56.90;;;;;;4935324;28;19917;-69
2022/08/31 14:45:58;;;;;;;;;;;28.00;56.80;;;;;;4935420;29;19922;-69